Time;durP1;ratioP1;P1;durP2;ratioP2;P2;SDS_P1;SDS_P2;PMS_P1;PMS_P2;Temp;Humidity;BMP_temperature;BMP_pressure;BME280_temperature;BME280_humidity;BME280_pressure;Samples;Min_cycle;Max_cycle;Signal;HPM_P1;HPM_P2
2022/07/08 00:00:34;;;;;;;12.63;3.30;;;;;;;;;;4952962;28;20236;-71
2022/07/08 00:03:02;;;;;;;10.65;3.35;;;;;;;;;;4969481;28;20229;-70
2022/07/08 00:05:27;;;;;;;10.85;3.00;;;;;;;;;;4972887;28;20230;-72
2022/07/08 00:07:53;;;;;;;14.98;3.50;;;;;;;;;;4958444;28;20278;-73
2022/07/08 00:10:18;;;;;;;12.15;3.35;;;;;;;;;;4955153;28;20228;-71
2022/07/08 00:12:44;;;;;;;12.82;3.30;;;;;;;;;;4968399;28;20230;-73
2022/07/08 00:15:14;;;;;;;9.80;2.93;;;;;;;;;;4950458;28;20230;-71
2022/07/08 00:17:42;;;;;;;12.27;3.03;;;;;;;;;;4964335;28;20280;-71
2022/07/08 00:20:09;;;;;;;13.02;3.15;;;;;;;;;;4976805;28;20218;-71
2022/07/08 00:22:37;;;;;;;10.13;3.00;;;;;;;;;;4954640;28;20320;-70
2022/07/08 00:25:04;;;;;;;9.25;2.90;;;;;;;;;;4973005;28;20222;-70
2022/07/08 00:27:36;;;;;;;10.20;2.80;;;;;;;;;;4974162;28;20711;-70
2022/07/08 00:30:04;;;;;;;13.57;3.17;;;;;;;;;;4962570;28;20265;-72
2022/07/08 00:32:30;;;;;;;9.93;3.10;;;;;;;;;;4957000;28;20237;-71
2022/07/08 00:34:55;;;;;;;12.25;3.28;;;;;;;;;;4964759;28;20234;-72
2022/07/08 00:37:21;;;;;;;12.82;3.25;;;;;;;;;;4956588;28;20731;-72
2022/07/08 00:39:46;;;;;;;15.05;2.95;;;;;;;;;;4969018;28;20236;-73
2022/07/08 00:42:12;;;;;;;10.18;3.15;;;;;;;;;;4971200;28;20228;-72
2022/07/08 00:44:38;;;;;;;10.37;2.87;;;;;;;;;;4971005;28;20226;-72
2022/07/08 00:47:03;;;;;;;13.13;2.90;;;;;;;;;;4986444;28;20715;-71
2022/07/08 00:49:29;;;;;;;10.25;2.83;;;;;;;;;;4978002;28;20244;-71
2022/07/08 00:51:54;;;;;;;8.77;2.77;;;;;;;;;;4955982;28;20274;-72
2022/07/08 00:54:20;;;;;;;11.63;2.80;;;;;;;;;;4951260;28;20252;-74
2022/07/08 00:56:51;;;;;;;11.57;2.83;;;;;;;;;;4953110;28;20223;-73
2022/07/08 00:59:19;;;;;;;12.10;2.75;;;;;;;;;;4968366;28;20237;-73
2022/07/08 01:01:47;;;;;;;8.10;2.47;;;;;;;;;;4970154;28;20299;-71
2022/07/08 01:04:12;;;;;;;10.40;2.73;;;;;;;;;;4951979;28;20647;-72
2022/07/08 01:06:38;;;;;;;11.30;3.00;;;;;;;;;;4960418;28;20225;-70
2022/07/08 01:09:03;;;;;;;13.63;2.42;;;;;;;;;;4963899;28;20240;-70
2022/07/08 01:11:29;;;;;;;9.25;2.50;;;;;;;;;;4953497;28;20942;-70
2022/07/08 01:13:57;;;;;;;8.15;2.83;;;;;;;;;;4947530;28;20231;-71
2022/07/08 01:16:24;;;;;;;7.55;2.47;;;;;;;;;;4960671;28;20799;-71
2022/07/08 01:18:50;;;;;;;10.75;3.05;;;;;;;;;;4968598;28;20279;-70
2022/07/08 01:21:16;;;;;;;8.18;2.78;;;;;;;;;;4938290;28;20271;-71
2022/07/08 01:23:48;;;;;;;12.23;2.60;;;;;;;;;;4957761;28;20238;-70
2022/07/08 01:26:14;;;;;;;7.75;2.63;;;;;;;;;;4955852;28;20222;-71
2022/07/08 01:28:42;;;;;;;7.65;2.60;;;;;;;;;;4970846;28;20618;-71
2022/07/08 01:31:07;;;;;;;9.40;2.93;;;;;;;;;;4934270;28;20225;-71
2022/07/08 01:33:33;;;;;;;7.93;2.70;;;;;;;;;;4965526;28;20264;-69
2022/07/08 01:35:58;;;;;;;9.77;2.63;;;;;;;;;;4965925;28;20226;-70
2022/07/08 01:38:24;;;;;;;11.13;2.33;;;;;;;;;;4953022;28;20723;-71
2022/07/08 01:40:52;;;;;;;7.78;2.53;;;;;;;;;;4969012;28;20239;-71
2022/07/08 01:43:17;;;;;;;13.10;3.00;;;;;;;;;;4977297;28;20241;-67
2022/07/08 01:45:43;;;;;;;7.77;2.43;;;;;;;;;;4975868;28;20219;-70
2022/07/08 01:48:08;;;;;;;8.73;2.47;;;;;;;;;;4968375;28;20223;-69
2022/07/08 01:50:34;;;;;;;8.87;2.60;;;;;;;;;;4965431;28;20731;-70
2022/07/08 01:52:59;;;;;;;11.87;2.73;;;;;;;;;;4965077;28;20223;-70
2022/07/08 01:55:29;;;;;;;8.70;2.73;;;;;;;;;;4936392;28;20624;-70
2022/07/08 01:57:55;;;;;;;7.45;2.35;;;;;;;;;;4965658;28;20275;-70
2022/07/08 02:00:20;;;;;;;8.45;2.42;;;;;;;;;;4988446;28;20640;-70
2022/07/08 02:02:47;;;;;;;9.43;2.37;;;;;;;;;;4960762;28;20230;-71
2022/07/08 02:05:17;;;;;;;10.90;2.83;;;;;;;;;;4973545;28;20237;-71
2022/07/08 02:07:42;;;;;;;8.50;2.50;;;;;;;;;;4937356;28;20234;-71
2022/07/08 02:10:11;;;;;;;9.57;3.30;;;;;;;;;;4979228;28;20280;-70
2022/07/08 02:12:39;;;;;;;10.07;2.60;;;;;;;;;;4971088;28;20230;-70
2022/07/08 02:15:06;;;;;;;11.17;2.73;;;;;;;;;;4944005;28;20236;-71
2022/07/08 02:17:36;;;;;;;8.83;2.40;;;;;;;;;;4957057;28;20276;-70
2022/07/08 02:20:07;;;;;;;9.83;2.20;;;;;;;;;;4975350;28;20225;-70
2022/07/08 02:22:35;;;;;;;8.77;2.73;;;;;;;;;;4957522;28;20976;-70
2022/07/08 02:25:03;;;;;;;9.17;2.50;;;;;;;;;;4975322;28;20225;-71
2022/07/08 02:27:29;;;;;;;8.93;2.77;;;;;;;;;;4957613;28;20231;-70
2022/07/08 02:29:54;;;;;;;12.23;2.63;;;;;;;;;;4953703;28;20229;-69
2022/07/08 02:32:25;;;;;;;5.72;2.20;;;;;;;;;;4948524;28;20308;-69
2022/07/08 02:34:50;;;;;;;10.07;2.80;;;;;;;;;;4956444;28;20263;-71
2022/07/08 02:37:16;;;;;;;8.23;2.43;;;;;;;;;;4943358;28;20225;-71
2022/07/08 02:39:42;;;;;;;9.52;2.30;;;;;;;;;;4978554;28;20230;-70
2022/07/08 02:42:09;;;;;;;11.00;2.60;;;;;;;;;;4957030;28;20946;-71
2022/07/08 02:44:36;;;;;;;11.20;2.58;;;;;;;;;;4952819;28;20234;-71
2022/07/08 02:47:03;;;;;;;11.87;5.13;;;;;;;;;;4961791;28;20227;-70
2022/07/08 02:49:34;;;;;;;11.73;3.00;;;;;;;;;;4968161;28;20316;-70
2022/07/08 02:52:00;;;;;;;9.03;2.47;;;;;;;;;;4953566;28;20279;-71
2022/07/08 02:54:25;;;;;;;11.40;2.50;;;;;;;;;;4968535;28;20260;-71
2022/07/08 02:56:53;;;;;;;9.17;2.60;;;;;;;;;;4959351;28;20601;-71
2022/07/08 02:59:19;;;;;;;9.37;2.47;;;;;;;;;;4962605;28;20218;-71
2022/07/08 03:01:44;;;;;;;9.50;2.27;;;;;;;;;;4939883;28;20276;-69
2022/07/08 03:04:10;;;;;;;5.93;2.03;;;;;;;;;;4977542;28;20214;-71
2022/07/08 03:06:38;;;;;;;7.07;2.50;;;;;;;;;;4965905;28;20248;-70
2022/07/08 03:09:03;;;;;;;10.18;2.33;;;;;;;;;;4953994;28;20234;-71
2022/07/08 03:11:29;;;;;;;12.80;2.97;;;;;;;;;;4949823;28;20738;-71
2022/07/08 03:13:55;;;;;;;8.80;2.43;;;;;;;;;;4952813;28;20808;-71
2022/07/08 03:16:20;;;;;;;9.02;2.15;;;;;;;;;;4954581;28;20788;-71
2022/07/08 03:18:46;;;;;;;6.50;2.20;;;;;;;;;;4957691;28;20226;-71
2022/07/08 03:21:14;;;;;;;8.85;2.15;;;;;;;;;;4958486;28;20232;-70
2022/07/08 03:23:39;;;;;;;5.97;1.97;;;;;;;;;;4954550;28;20225;-70
2022/07/08 03:26:05;;;;;;;7.40;2.40;;;;;;;;;;4986617;28;20572;-70
2022/07/08 03:28:33;;;;;;;7.82;2.42;;;;;;;;;;4968442;28;20225;-71
2022/07/08 03:30:58;;;;;;;5.23;1.97;;;;;;;;;;4968239;28;20233;-70
2022/07/08 03:33:24;;;;;;;7.50;2.33;;;;;;;;;;4957235;28;20274;-72
2022/07/08 03:35:50;;;;;;;7.65;2.20;;;;;;;;;;4962046;28;20309;-71
2022/07/08 03:38:16;;;;;;;8.73;2.20;;;;;;;;;;4949324;28;20225;-71
2022/07/08 03:43:26;;;;;;;6.65;2.13;;;;;;;;;;4980128;28;20248;-68
2022/07/08 03:45:51;;;;;;;5.77;1.90;;;;;;;;;;4943735;28;20221;-71
2022/07/08 03:48:17;;;;;;;4.10;1.73;;;;;;;;;;4981869;28;20217;-69
2022/07/08 03:50:43;;;;;;;7.73;1.97;;;;;;;;;;4966575;28;20215;-70
2022/07/08 03:53:10;;;;;;;7.63;2.13;;;;;;;;;;4969721;28;20707;-70
2022/07/08 03:55:37;;;;;;;7.67;2.20;;;;;;;;;;4957449;28;20329;-71
2022/07/08 03:58:02;;;;;;;8.77;2.25;;;;;;;;;;4957535;28;20820;-71
2022/07/08 04:00:30;;;;;;;8.97;2.00;;;;;;;;;;4977375;28;20230;-71
2022/07/08 04:02:56;;;;;;;7.33;1.97;;;;;;;;;;4958584;28;20226;-70
2022/07/08 04:05:22;;;;;;;8.37;2.23;;;;;;;;;;4985781;28;20632;-70
2022/07/08 04:07:49;;;;;;;5.30;1.90;;;;;;;;;;4953062;28;20601;-68
2022/07/08 04:10:15;;;;;;;6.27;2.13;;;;;;;;;;4970984;28;20279;-70
2022/07/08 04:12:41;;;;;;;9.57;2.50;;;;;;;;;;4960832;28;20226;-72
2022/07/08 04:15:07;;;;;;;7.70;2.35;;;;;;;;;;4973226;28;20316;-70
2022/07/08 04:17:33;;;;;;;6.20;1.90;;;;;;;;;;4973422;28;20898;-72
2022/07/08 04:20:01;;;;;;;8.85;2.30;;;;;;;;;;4959868;28;20245;-72
2022/07/08 04:22:29;;;;;;;8.73;2.07;;;;;;;;;;4983001;28;20230;-72
2022/07/08 04:24:57;;;;;;;6.77;2.23;;;;;;;;;;4973014;28;20256;-73
2022/07/08 04:27:23;;;;;;;8.10;2.20;;;;;;;;;;4955941;28;20341;-72
2022/07/08 04:29:48;;;;;;;15.07;2.33;;;;;;;;;;4969542;28;20240;-73
2022/07/08 04:32:16;;;;;;;7.93;2.40;;;;;;;;;;4967325;28;20218;-71
2022/07/08 04:34:42;;;;;;;11.65;2.35;;;;;;;;;;4955529;28;20610;-71
2022/07/08 04:37:08;;;;;;;5.87;2.03;;;;;;;;;;4960421;28;20267;-71
2022/07/08 04:39:35;;;;;;;6.50;2.10;;;;;;;;;;4983276;28;20589;-72
2022/07/08 04:42:01;;;;;;;9.30;2.10;;;;;;;;;;4958523;28;20353;-73
2022/07/08 04:44:27;;;;;;;8.20;2.47;;;;;;;;;;4951848;28;20242;-70
2022/07/08 04:46:52;;;;;;;8.63;2.20;;;;;;;;;;4965996;28;20801;-71
2022/07/08 04:49:20;;;;;;;9.63;2.10;;;;;;;;;;4964837;28;20291;-72
2022/07/08 04:51:46;;;;;;;9.43;2.17;;;;;;;;;;4952273;28;20229;-74
2022/07/08 04:54:14;;;;;;;9.93;2.50;;;;;;;;;;4946471;28;20613;-72
2022/07/08 04:56:40;;;;;;;6.57;2.42;;;;;;;;;;4957817;28;20241;-71
2022/07/08 04:59:06;;;;;;;7.45;2.10;;;;;;;;;;4971546;28;20230;-74
2022/07/08 05:01:31;;;;;;;7.43;2.15;;;;;;;;;;4955451;28;20222;-72
2022/07/08 05:03:57;;;;;;;6.43;2.15;;;;;;;;;;4954372;28;20650;-70
2022/07/08 05:06:26;;;;;;;7.40;2.60;;;;;;;;;;4967479;28;20656;-72
2022/07/08 05:08:51;;;;;;;7.13;2.10;;;;;;;;;;4952822;28;20234;-71
2022/07/08 05:11:17;;;;;;;7.63;2.47;;;;;;;;;;4967305;28;20221;-72
2022/07/08 05:13:42;;;;;;;5.53;1.83;;;;;;;;;;4974763;28;20236;-73
2022/07/08 05:16:08;;;;;;;6.78;1.88;;;;;;;;;;4944126;28;20241;-74
2022/07/08 05:18:34;;;;;;;8.30;2.00;;;;;;;;;;4958491;28;20237;-72
2022/07/08 05:21:04;;;;;;;9.27;2.20;;;;;;;;;;4973627;28;20230;-72
2022/07/08 05:23:30;;;;;;;7.75;2.35;;;;;;;;;;4979674;28;20229;-73
2022/07/08 05:25:55;;;;;;;8.70;2.13;;;;;;;;;;4955091;28;20229;-73
2022/07/08 05:28:21;;;;;;;6.18;1.80;;;;;;;;;;4967791;28;20225;-73
2022/07/08 05:30:49;;;;;;;9.40;2.45;;;;;;;;;;4970524;28;20280;-71
2022/07/08 05:33:20;;;;;;;5.38;1.70;;;;;;;;;;4967981;28;20245;-72
2022/07/08 05:35:48;;;;;;;6.18;2.08;;;;;;;;;;4977706;28;20225;-72
2022/07/08 05:38:13;;;;;;;8.57;2.35;;;;;;;;;;4974260;28;21054;-72
2022/07/08 05:40:39;;;;;;;9.02;2.28;;;;;;;;;;4975315;28;20233;-73
2022/07/08 05:43:05;;;;;;;8.57;2.35;;;;;;;;;;4972707;28;20805;-72
2022/07/08 05:45:31;;;;;;;7.38;2.05;;;;;;;;;;4958953;28;20272;-72
2022/07/08 05:47:59;;;;;;;8.15;2.20;;;;;;;;;;4960993;28;20221;-72
2022/07/08 05:50:24;;;;;;;10.63;2.28;;;;;;;;;;4940421;28;20356;-71
2022/07/08 05:52:50;;;;;;;8.75;2.10;;;;;;;;;;4959266;28;20260;-71
2022/07/08 05:55:16;;;;;;;7.20;1.95;;;;;;;;;;4968707;28;20258;-72
2022/07/08 05:57:42;;;;;;;8.10;2.30;;;;;;;;;;4975999;28;20222;-71
2022/07/08 06:00:08;;;;;;;7.57;2.28;;;;;;;;;;4973405;28;20226;-72
2022/07/08 06:02:47;;;;;;;11.10;2.35;;;;;;;;;;4959128;28;20238;-71
2022/07/08 06:05:13;;;;;;;7.78;2.53;;;;;;;;;;4943540;28;20256;-73
2022/07/08 06:07:39;;;;;;;9.27;1.98;;;;;;;;;;4972375;28;20229;-73
2022/07/08 06:10:10;;;;;;;7.97;2.30;;;;;;;;;;4978883;28;20236;-72
2022/07/08 06:12:35;;;;;;;7.25;1.90;;;;;;;;;;4957972;28;20659;-73
2022/07/08 06:15:01;;;;;;;6.97;2.08;;;;;;;;;;4975362;28;20234;-71
2022/07/08 06:17:26;;;;;;;7.05;2.15;;;;;;;;;;4974855;28;20221;-71
2022/07/08 06:19:52;;;;;;;9.30;2.22;;;;;;;;;;4962618;28;20230;-72
2022/07/08 06:22:18;;;;;;;6.43;1.98;;;;;;;;;;4979244;28;20239;-72
2022/07/08 06:24:43;;;;;;;5.43;1.90;;;;;;;;;;4966832;28;20234;-73
2022/07/08 06:27:09;;;;;;;7.20;2.13;;;;;;;;;;4970023;28;20214;-73
2022/07/08 06:29:35;;;;;;;10.65;2.40;;;;;;;;;;4969948;28;20245;-72
2022/07/08 06:32:01;;;;;;;6.55;1.80;;;;;;;;;;4952956;28;20222;-72
2022/07/08 06:34:29;;;;;;;6.53;1.85;;;;;;;;;;4972747;28;20292;-72
2022/07/08 06:36:57;;;;;;;8.23;2.17;;;;;;;;;;4971156;28;20230;-73
2022/07/08 06:39:23;;;;;;;9.25;2.22;;;;;;;;;;4958548;28;20725;-72
2022/07/08 06:41:48;;;;;;;5.53;1.83;;;;;;;;;;4972199;28;20225;-75
2022/07/08 06:44:14;;;;;;;13.00;2.85;;;;;;;;;;4968843;28;20218;-71
2022/07/08 06:46:41;;;;;;;7.72;2.20;;;;;;;;;;4970353;28;20238;-74
2022/07/08 06:49:08;;;;;;;5.45;1.88;;;;;;;;;;4951648;28;20715;-72
2022/07/08 06:51:33;;;;;;;9.73;2.42;;;;;;;;;;4957098;28;20275;-73
2022/07/08 06:56:46;;;;;;;6.97;2.05;;;;;;;;;;4973360;28;20297;-73
2022/07/08 06:59:11;;;;;;;5.97;1.90;;;;;;;;;;4970552;28;20225;-72
2022/07/08 07:01:37;;;;;;;6.97;2.30;;;;;;;;;;4954535;28;20645;-72
2022/07/08 07:04:06;;;;;;;7.57;1.98;;;;;;;;;;4953123;28;20236;-73
2022/07/08 07:06:33;;;;;;;10.07;2.15;;;;;;;;;;4957521;28;20237;-72
2022/07/08 07:08:59;;;;;;;6.90;2.20;;;;;;;;;;4987926;28;20575;-72
2022/07/08 07:11:25;;;;;;;8.73;2.47;;;;;;;;;;4971430;28;20236;-72
2022/07/08 07:13:53;;;;;;;8.13;2.60;;;;;;;;;;4939026;28;20233;-73
2022/07/08 07:16:21;;;;;;;11.63;2.63;;;;;;;;;;4943070;28;20233;-72
2022/07/08 07:18:47;;;;;;;5.93;2.22;;;;;;;;;;4955663;28;20226;-72
2022/07/08 07:21:15;;;;;;;7.85;2.42;;;;;;;;;;4950839;28;20778;-72
2022/07/08 07:23:40;;;;;;;9.50;2.28;;;;;;;;;;4967802;28;20230;-71
2022/07/08 07:26:06;;;;;;;8.73;1.73;;;;;;;;;;4968818;28;20226;-72
2022/07/08 07:28:33;;;;;;;7.93;2.00;;;;;;;;;;4958910;28;20233;-72
2022/07/08 07:30:59;;;;;;;9.23;2.35;;;;;;;;;;4958906;28;20232;-71
2022/07/08 07:34:02;;;;;;;7.63;2.10;;;;;;;;;;4967158;28;20707;-72
2022/07/08 07:36:28;;;;;;;6.70;2.28;;;;;;;;;;4956051;28;20735;-74
2022/07/08 07:38:54;;;;;;;6.28;1.90;;;;;;;;;;4976876;28;20242;-73
2022/07/08 07:41:20;;;;;;;4.18;1.80;;;;;;;;;;4965226;28;20234;-74
2022/07/08 07:43:46;;;;;;;9.25;2.70;;;;;;;;;;4966803;28;20241;-71
2022/07/08 07:46:17;;;;;;;7.25;2.10;;;;;;;;;;4964111;28;20226;-72
2022/07/08 07:48:46;;;;;;;7.63;2.50;;;;;;;;;;4951443;28;20218;-72
2022/07/08 07:51:12;;;;;;;6.45;2.67;;;;;;;;;;4961821;28;20225;-73
2022/07/08 07:53:40;;;;;;;8.30;1.90;;;;;;;;;;4959076;28;20605;-72
2022/07/08 07:56:06;;;;;;;7.93;2.30;;;;;;;;;;4970920;28;20973;-71
2022/07/08 07:58:32;;;;;;;8.38;2.47;;;;;;;;;;4976571;28;20312;-73
2022/07/08 08:00:57;;;;;;;8.98;2.25;;;;;;;;;;4963886;28;20230;-74
2022/07/08 08:03:23;;;;;;;7.40;2.80;;;;;;;;;;4965828;28;20241;-72
2022/07/08 08:05:48;;;;;;;6.55;2.13;;;;;;;;;;4969475;28;20226;-72
2022/07/08 08:08:14;;;;;;;6.35;1.70;;;;;;;;;;4953611;28;21004;-73
2022/07/08 08:10:40;;;;;;;4.22;2.00;;;;;;;;;;4986837;28;20230;-73
2022/07/08 08:13:05;;;;;;;4.32;1.90;;;;;;;;;;4957065;28;20217;-72
2022/07/08 08:15:32;;;;;;;6.97;2.38;;;;;;;;;;4962436;28;20238;-72
2022/07/08 08:17:58;;;;;;;10.68;2.22;;;;;;;;;;4953876;28;20237;-72
2022/07/08 08:20:30;;;;;;;11.05;2.15;;;;;;;;;;4950496;28;20242;-73
2022/07/08 08:22:56;;;;;;;5.82;2.10;;;;;;;;;;4949271;28;20609;-72
2022/07/08 08:25:22;;;;;;;6.15;2.17;;;;;;;;;;4971921;28;20301;-72
2022/07/08 08:27:47;;;;;;;6.80;2.20;;;;;;;;;;4961438;28;20244;-73
2022/07/08 08:30:15;;;;;;;8.20;2.70;;;;;;;;;;4960076;28;20210;-72
2022/07/08 08:32:43;;;;;;;9.52;2.40;;;;;;;;;;4954862;28;20293;-72
2022/07/08 08:35:09;;;;;;;7.22;2.40;;;;;;;;;;4953018;28;20229;-72
2022/07/08 08:37:35;;;;;;;7.93;2.50;;;;;;;;;;4953544;28;20243;-72
2022/07/08 08:40:07;;;;;;;9.60;2.70;;;;;;;;;;4970641;28;20316;-72
2022/07/08 08:42:33;;;;;;;12.57;3.95;;;;;;;;;;4964333;28;20238;-72
2022/07/08 08:44:59;;;;;;;9.68;3.00;;;;;;;;;;4966763;28;20292;-73
2022/07/08 08:47:29;;;;;;;7.47;2.45;;;;;;;;;;4945310;28;20233;-74
2022/07/08 08:49:55;;;;;;;9.30;2.55;;;;;;;;;;4941400;28;20228;-71
2022/07/08 08:52:24;;;;;;;8.65;3.50;;;;;;;;;;4970663;28;20269;-72
2022/07/08 08:54:52;;;;;;;5.65;2.28;;;;;;;;;;4977869;28;20288;-71
2022/07/08 08:57:18;;;;;;;8.50;2.28;;;;;;;;;;4956799;28;20223;-72
2022/07/08 08:59:47;;;;;;;8.45;1.92;;;;;;;;;;4955654;28;20233;-73
2022/07/08 09:02:12;;;;;;;7.45;2.22;;;;;;;;;;4951365;28;20321;-71
2022/07/08 09:04:40;;;;;;;6.85;2.10;;;;;;;;;;4952557;28;20226;-72
2022/07/08 09:07:06;;;;;;;6.40;2.10;;;;;;;;;;4949479;28;20309;-72
2022/07/08 09:09:32;;;;;;;9.82;2.35;;;;;;;;;;4952510;28;20234;-74
2022/07/08 09:11:57;;;;;;;7.95;2.03;;;;;;;;;;4943877;28;20257;-72
2022/07/08 09:14:23;;;;;;;9.63;2.47;;;;;;;;;;4956769;28;20706;-74
2022/07/08 09:17:11;;;;;;;10.40;2.38;;;;;;;;;;4954616;28;20706;-70
2022/07/08 09:19:37;;;;;;;10.13;3.08;;;;;;;;;;4967444;28;20237;-72
2022/07/08 09:22:07;;;;;;;10.15;2.50;;;;;;;;;;5022751;28;20222;-69
2022/07/08 09:24:33;;;;;;;9.05;2.50;;;;;;;;;;4983163;28;20650;-72
2022/07/08 09:27:04;;;;;;;8.75;2.72;;;;;;;;;;4946352;28;20236;-71
2022/07/08 09:29:30;;;;;;;7.40;2.28;;;;;;;;;;4954151;28;20230;-72
2022/07/08 09:32:18;;;;;;;4.13;2.00;;;;;;;;;;4962867;28;20727;-73
2022/07/08 09:34:44;;;;;;;8.93;2.45;;;;;;;;;;4979500;28;20240;-71
2022/07/08 09:37:14;;;;;;;5.93;2.35;;;;;;;;;;4989744;28;20230;-71
2022/07/08 09:39:39;;;;;;;7.60;2.40;;;;;;;;;;4937781;28;20223;-74
2022/07/08 09:42:07;;;;;;;8.68;2.65;;;;;;;;;;4954432;28;20221;-74
2022/07/08 09:44:35;;;;;;;8.38;2.20;;;;;;;;;;4963731;28;20364;-71
2022/07/08 09:47:10;;;;;;;7.43;2.83;;;;;;;;;;4957370;28;20719;-70
2022/07/08 09:49:41;;;;;;;6.82;2.33;;;;;;;;;;4961551;28;20218;-73
2022/07/08 09:52:07;;;;;;;8.95;2.25;;;;;;;;;;4980119;28;20222;-72
2022/07/08 09:54:33;;;;;;;7.18;2.00;;;;;;;;;;4954905;28;20719;-71
2022/07/08 09:57:02;;;;;;;8.35;2.55;;;;;;;;;;4972098;28;20268;-70
2022/07/08 09:59:30;;;;;;;7.93;2.40;;;;;;;;;;4984398;28;20276;-72
2022/07/08 10:01:56;;;;;;;5.90;2.38;;;;;;;;;;4954430;28;20241;-70
2022/07/08 10:04:23;;;;;;;8.50;2.42;;;;;;;;;;4934572;28;20214;-71
2022/07/08 10:06:50;;;;;;;5.05;2.00;;;;;;;;;;4924169;28;20229;-71
2022/07/08 10:09:16;;;;;;;4.75;1.75;;;;;;;;;;4975604;28;20232;-74
2022/07/08 10:11:42;;;;;;;6.63;2.13;;;;;;;;;;4940404;28;20588;-72
2022/07/08 10:14:08;;;;;;;6.97;2.33;;;;;;;;;;4983226;28;20299;-72
2022/07/08 10:16:34;;;;;;;6.15;2.20;;;;;;;;;;4964591;28;20238;-73
2022/07/08 10:19:00;;;;;;;8.90;2.60;;;;;;;;;;4990809;28;20210;-72
2022/07/08 10:21:25;;;;;;;5.85;2.45;;;;;;;;;;4954278;28;20230;-73
2022/07/08 10:23:52;;;;;;;6.60;2.28;;;;;;;;;;4973871;28;20280;-73
2022/07/08 10:26:34;;;;;;;9.13;2.63;;;;;;;;;;4955733;28;20651;-71
2022/07/08 10:29:02;;;;;;;7.30;1.90;;;;;;;;;;4977048;28;20252;-72
2022/07/08 10:31:30;;;;;;;4.47;2.00;;;;;;;;;;4960072;28;20340;-72
2022/07/08 10:34:00;;;;;;;3.28;1.30;;;;;;;;;;4964646;28;20666;-72
2022/07/08 10:36:28;;;;;;;7.25;1.88;;;;;;;;;;4967373;28;20244;-72
2022/07/08 10:38:56;;;;;;;5.25;2.28;;;;;;;;;;4941747;28;20564;-73
2022/07/08 10:41:25;;;;;;;4.80;1.80;;;;;;;;;;4956490;28;20261;-73
2022/07/08 10:43:58;;;;;;;4.80;1.88;;;;;;;;;;4955107;28;20227;-71
2022/07/08 10:46:24;;;;;;;6.88;2.00;;;;;;;;;;4950893;28;20234;-73
2022/07/08 10:48:52;;;;;;;4.43;2.20;;;;;;;;;;4959188;28;20642;-73
2022/07/08 10:51:24;;;;;;;6.47;2.10;;;;;;;;;;4954620;28;20252;-73
2022/07/08 10:53:53;;;;;;;7.50;2.03;;;;;;;;;;4969917;28;20612;-72
2022/07/08 10:56:58;;;;;;;4.40;2.05;;;;;;;;;;4961861;28;20218;-73
2022/07/08 10:59:29;;;;;;;5.47;2.17;;;;;;;;;;4953706;28;20240;-72
2022/07/08 11:01:59;;;;;;;5.90;2.33;;;;;;;;;;4951270;28;20226;-72
2022/07/08 11:04:32;;;;;;;6.90;2.33;;;;;;;;;;4973874;28;20711;-73
2022/07/08 11:07:37;;;;;;;5.97;2.45;;;;;;;;;;4957593;28;20993;-73
2022/07/08 11:10:11;;;;;;;5.18;2.28;;;;;;;;;;4972698;28;20282;-71
2022/07/08 11:12:40;;;;;;;4.68;2.72;;;;;;;;;;4946550;28;20948;-72
2022/07/08 11:15:13;;;;;;;5.40;2.95;;;;;;;;;;4958767;28;20292;-72
2022/07/08 11:17:40;;;;;;;5.82;2.60;;;;;;;;;;4949787;28;20736;-73
2022/07/08 11:20:09;;;;;;;3.85;2.47;;;;;;;;;;4955244;28;20239;-73
2022/07/08 11:22:35;;;;;;;6.38;2.70;;;;;;;;;;4955441;28;20707;-72
2022/07/08 11:25:01;;;;;;;6.25;2.92;;;;;;;;;;4973778;28;20226;-72
2022/07/08 11:27:28;;;;;;;6.82;3.55;;;;;;;;;;4969975;28;20286;-73
2022/07/08 11:29:54;;;;;;;6.90;3.70;;;;;;;;;;4971975;28;20226;-74
2022/07/08 11:32:21;;;;;;;6.63;3.95;;;;;;;;;;4968846;28;20809;-72
2022/07/08 11:34:52;;;;;;;5.47;3.75;;;;;;;;;;4952709;28;20241;-73
2022/07/08 11:37:20;;;;;;;10.70;3.90;;;;;;;;;;4938768;28;20640;-73
2022/07/08 11:39:45;;;;;;;6.18;3.85;;;;;;;;;;4962429;28;20225;-74
2022/07/08 11:42:12;;;;;;;8.65;3.60;;;;;;;;;;4956053;28;20651;-74
2022/07/08 11:44:40;;;;;;;9.60;3.83;;;;;;;;;;4973204;28;20234;-72
2022/07/08 11:47:06;;;;;;;7.72;3.72;;;;;;;;;;4956468;28;20231;-73
2022/07/08 11:49:32;;;;;;;8.95;3.88;;;;;;;;;;4955754;28;20321;-75
2022/07/08 11:52:00;;;;;;;5.70;3.35;;;;;;;;;;4952666;28;20301;-74
2022/07/08 11:54:27;;;;;;;7.95;3.78;;;;;;;;;;4949049;28;20238;-73
2022/07/08 11:56:57;;;;;;;7.57;2.95;;;;;;;;;;4943835;28;20226;-73
2022/07/08 11:59:23;;;;;;;5.40;3.15;;;;;;;;;;4959652;28;20263;-73
2022/07/08 12:01:54;;;;;;;7.45;3.10;;;;;;;;;;4961166;28;20230;-73
2022/07/08 12:04:20;;;;;;;5.30;3.15;;;;;;;;;;4962401;28;20218;-73
2022/07/08 12:06:50;;;;;;;6.38;3.55;;;;;;;;;;4990694;28;20597;-73
2022/07/08 12:09:19;;;;;;;5.25;3.40;;;;;;;;;;4963039;28;20236;-73
2022/07/08 12:11:46;;;;;;;9.02;4.05;;;;;;;;;;4969536;28;20236;-72
2022/07/08 12:14:12;;;;;;;5.90;3.60;;;;;;;;;;5006362;28;20255;-72
2022/07/08 12:16:54;;;;;;;5.47;3.83;;;;;;;;;;4950622;28;20226;-72
2022/07/08 12:19:30;;;;;;;6.43;4.18;;;;;;;;;;4959971;28;20783;-73
2022/07/08 12:21:57;;;;;;;8.27;4.07;;;;;;;;;;4972796;28;20231;-72
2022/07/08 12:24:25;;;;;;;5.30;3.75;;;;;;;;;;4956288;28;20234;-74
2022/07/08 12:26:57;;;;;;;6.32;3.85;;;;;;;;;;4966654;28;20272;-73
2022/07/08 12:29:24;;;;;;;7.25;3.60;;;;;;;;;;4950756;28;20246;-72
2022/07/08 12:31:50;;;;;;;5.20;3.88;;;;;;;;;;4952851;28;20261;-73
2022/07/08 12:34:19;;;;;;;7.65;3.85;;;;;;;;;;5025507;28;20234;-72
2022/07/08 12:36:46;;;;;;;6.72;3.50;;;;;;;;;;4960195;28;20232;-72
2022/07/08 12:39:15;;;;;;;10.35;3.80;;;;;;;;;;4966071;28;20230;-72
2022/07/08 12:41:41;;;;;;;8.65;3.67;;;;;;;;;;4956400;28;20225;-71
2022/07/08 12:44:28;;;;;;;5.00;2.90;;;;;;;;;;4956907;28;20222;-73
2022/07/08 12:46:54;;;;;;;5.88;3.30;;;;;;;;;;4971715;28;20254;-73
2022/07/08 12:49:26;;;;;;;4.72;3.15;;;;;;;;;;4952877;28;20332;-72
2022/07/08 12:51:51;;;;;;;8.68;4.40;;;;;;;;;;4965224;28;20233;-73
2022/07/08 12:54:18;;;;;;;5.03;3.17;;;;;;;;;;4954080;28;20229;-73
2022/07/08 12:56:44;;;;;;;3.85;2.83;;;;;;;;;;4971091;28;20218;-72
2022/07/08 12:59:10;;;;;;;4.22;2.60;;;;;;;;;;4954195;28;20218;-73
2022/07/08 13:01:38;;;;;;;2.92;2.40;;;;;;;;;;4957365;28;20299;-73
2022/07/08 13:04:04;;;;;;;2.90;2.13;;;;;;;;;;4944325;28;20237;-72
2022/07/08 13:06:34;;;;;;;8.23;2.90;;;;;;;;;;4971407;28;20648;-74
2022/07/08 13:09:03;;;;;;;4.93;2.30;;;;;;;;;;4951543;28;20234;-74
2022/07/08 13:11:29;;;;;;;4.63;2.80;;;;;;;;;;4953312;28;20229;-73
2022/07/08 13:13:57;;;;;;;4.13;2.97;;;;;;;;;;4949025;28;20246;-74
2022/07/08 13:16:23;;;;;;;5.03;2.80;;;;;;;;;;4968893;28;20226;-72
2022/07/08 13:18:48;;;;;;;5.85;3.28;;;;;;;;;;4967817;28;20229;-71
2022/07/08 13:21:14;;;;;;;7.07;3.90;;;;;;;;;;4959703;28;20230;-71
2022/07/08 13:23:40;;;;;;;6.22;3.92;;;;;;;;;;4973014;28;20241;-71
2022/07/08 13:26:08;;;;;;;5.03;2.80;;;;;;;;;;4957987;28;20233;-73
2022/07/08 13:28:36;;;;;;;4.13;2.75;;;;;;;;;;4953048;28;20230;-73
2022/07/08 13:31:01;;;;;;;3.90;2.78;;;;;;;;;;4950965;28;20234;-72
2022/07/08 13:33:27;;;;;;;4.55;3.22;;;;;;;;;;4979042;28;20287;-73
2022/07/08 13:35:53;;;;;;;3.75;2.70;;;;;;;;;;4952337;28;20250;-73
2022/07/08 13:38:19;;;;;;;5.07;3.00;;;;;;;;;;4954758;28;20224;-73
2022/07/08 13:40:45;;;;;;;4.82;2.70;;;;;;;;;;4960216;28;20229;-73
2022/07/08 13:43:11;;;;;;;2.95;2.17;;;;;;;;;;4960779;28;20632;-73
2022/07/08 13:45:37;;;;;;;3.95;2.20;;;;;;;;;;4956674;28;20222;-73
2022/07/08 13:48:03;;;;;;;4.38;2.50;;;;;;;;;;4969128;28;20269;-73
2022/07/08 13:50:29;;;;;;;4.18;2.50;;;;;;;;;;5043167;28;20264;-73
2022/07/08 13:52:57;;;;;;;4.78;2.90;;;;;;;;;;4949001;28;20742;-73
2022/07/08 13:55:24;;;;;;;3.38;2.50;;;;;;;;;;4936508;28;20274;-74
2022/07/08 13:57:49;;;;;;;3.72;2.72;;;;;;;;;;4978483;28;20282;-72
2022/07/08 14:00:15;;;;;;;3.25;2.58;;;;;;;;;;4974897;28;20317;-73
2022/07/08 14:02:41;;;;;;;2.63;2.42;;;;;;;;;;4975694;28;20227;-74
2022/07/08 14:05:10;;;;;;;5.57;2.53;;;;;;;;;;4959360;28;20218;-73
2022/07/08 14:07:36;;;;;;;4.80;2.10;;;;;;;;;;4939951;28;20229;-73
2022/07/08 14:10:01;;;;;;;4.38;2.40;;;;;;;;;;4968404;28;20223;-73
2022/07/08 14:12:27;;;;;;;6.50;2.35;;;;;;;;;;4985046;28;20233;-71
2022/07/08 14:14:55;;;;;;;3.17;2.00;;;;;;;;;;4966874;28;20238;-74
2022/07/08 14:17:20;;;;;;;1.85;1.58;;;;;;;;;;4953704;28;20723;-73
2022/07/08 14:19:48;;;;;;;4.45;2.00;;;;;;;;;;4975057;28;20229;-72
2022/07/08 14:22:14;;;;;;;2.22;2.00;;;;;;;;;;4971793;28;20222;-72
2022/07/08 14:24:39;;;;;;;2.15;1.90;;;;;;;;;;4951660;28;20230;-74
2022/07/08 14:27:07;;;;;;;3.22;2.10;;;;;;;;;;4958109;28;20241;-73
2022/07/08 14:29:35;;;;;;;2.70;1.98;;;;;;;;;;4949179;28;20267;-73
2022/07/08 14:32:01;;;;;;;2.35;2.15;;;;;;;;;;4968050;28;20218;-72
2022/07/08 14:34:29;;;;;;;2.40;1.92;;;;;;;;;;4953912;28;20326;-72
2022/07/08 14:36:58;;;;;;;3.33;2.45;;;;;;;;;;4962026;28;20271;-72
2022/07/08 14:39:24;;;;;;;3.70;2.30;;;;;;;;;;4976152;28;20333;-73
2022/07/08 14:41:49;;;;;;;3.83;2.40;;;;;;;;;;4954616;28;20237;-72
2022/07/08 14:44:15;;;;;;;3.60;2.35;;;;;;;;;;4971726;28;20230;-74
2022/07/08 14:46:45;;;;;;;2.92;2.45;;;;;;;;;;4960955;28;20230;-71